createdAt,value
2022-09-12T00:01:46.023Z,92.70
2022-09-12T00:04:33.191Z,92.60
2022-09-12T00:07:20.228Z,92.70
2022-09-12T00:10:09.654Z,92.70
2022-09-12T00:12:56.991Z,92.70
2022-09-12T00:15:46.171Z,92.70
2022-09-12T00:18:33.996Z,92.70
2022-09-12T00:21:22.306Z,92.70
2022-09-12T00:24:10.415Z,92.70
2022-09-12T00:26:58.627Z,92.70
2022-09-12T00:29:45.888Z,92.70
2022-09-12T00:32:32.855Z,93.20
2022-09-12T00:35:19.838Z,92.80
2022-09-12T00:38:06.846Z,92.80
2022-09-12T00:40:53.646Z,92.80
2022-09-12T00:43:44.519Z,92.80
2022-09-12T00:46:37.862Z,92.80
2022-09-12T00:49:28.771Z,92.80
2022-09-12T00:52:22.109Z,92.80
2022-09-12T00:55:13.995Z,92.80
2022-09-12T00:58:03.951Z,92.80
2022-09-12T01:00:53.605Z,92.80
2022-09-12T01:03:40.481Z,92.80
2022-09-12T01:06:29.834Z,92.90
2022-09-12T01:09:21.673Z,93.00
2022-09-12T01:12:09.333Z,93.00
2022-09-12T01:14:56.661Z,93.00
2022-09-12T01:18:03.881Z,93.00
2022-09-12T01:21:07.274Z,93.00
2022-09-12T01:24:15.554Z,93.00
2022-09-12T01:27:21.518Z,93.40
2022-09-12T01:30:38.158Z,93.00
2022-09-12T01:33:34.063Z,93.00
2022-09-12T01:36:36.045Z,93.50
2022-09-12T01:39:31.413Z,93.10
2022-09-12T01:42:25.746Z,93.00
2022-09-12T01:45:18.379Z,93.10
2022-09-12T01:48:15.264Z,93.00
2022-09-12T01:51:08.878Z,93.00
2022-09-12T01:54:04.182Z,93.00
2022-09-12T01:56:56.431Z,93.00
2022-09-12T01:59:48.400Z,93.10
2022-09-12T02:02:39.728Z,93.10
2022-09-12T02:05:33.261Z,93.00
2022-09-12T02:08:25.199Z,93.10
2022-09-12T02:11:14.333Z,93.10
2022-09-12T02:14:06.132Z,93.10
2022-09-12T02:16:58.109Z,93.10
2022-09-12T02:19:51.554Z,93.10
2022-09-12T02:22:41.074Z,93.10
2022-09-12T02:25:30.673Z,93.20
2022-09-12T02:28:24.638Z,93.20
2022-09-12T02:31:21.825Z,93.20
2022-09-12T02:34:15.160Z,93.20
2022-09-12T02:37:11.996Z,93.20
2022-09-12T02:40:00.171Z,93.20
2022-09-12T02:42:47.379Z,93.20
2022-09-12T02:45:37.752Z,93.20
2022-09-12T02:48:29.160Z,93.20
2022-09-12T02:51:20.307Z,93.20
2022-09-12T02:54:11.947Z,93.30
2022-09-12T02:56:58.832Z,93.20
2022-09-12T02:59:46.948Z,93.20
2022-09-12T03:02:56.618Z,93.20
2022-09-12T03:05:52.709Z,93.20
2022-09-12T03:09:00.613Z,93.20
2022-09-12T03:12:04.689Z,93.30
2022-09-12T03:15:07.351Z,93.20
2022-09-12T03:18:09.398Z,93.20
2022-09-12T03:21:04.068Z,93.30
2022-09-12T03:24:02.055Z,93.30
2022-09-12T03:26:52.715Z,93.30
2022-09-12T03:29:41.864Z,93.30
2022-09-12T03:32:45.235Z,93.40
2022-09-12T03:35:33.927Z,93.40
2022-09-12T03:38:21.219Z,93.50
2022-09-12T03:41:08.489Z,93.50
2022-09-12T03:43:56.999Z,93.50
2022-09-12T03:46:44.266Z,93.50
2022-09-12T03:49:31.296Z,93.50
2022-09-12T03:52:19.969Z,93.40
2022-09-12T03:55:07.799Z,93.50
2022-09-12T03:57:55.043Z,93.60
2022-09-12T04:00:43.128Z,93.60
2022-09-12T04:03:30.120Z,93.60
2022-09-12T04:06:20.033Z,93.60
2022-09-12T04:09:08.371Z,93.60
2022-09-12T04:11:55.622Z,93.60
2022-09-12T04:14:42.752Z,93.60
2022-09-12T04:17:29.993Z,93.60
2022-09-12T04:20:17.055Z,93.60
2022-09-12T04:23:04.305Z,93.60
2022-09-12T04:26:01.735Z,93.60
2022-09-12T04:28:49.326Z,93.60
2022-09-12T04:31:36.480Z,93.60
2022-09-12T04:34:23.623Z,93.60
2022-09-12T04:37:11.945Z,93.60
2022-09-12T04:39:59.569Z,93.60
2022-09-12T04:42:47.669Z,93.60
2022-09-12T04:45:34.855Z,93.60
2022-09-12T04:48:21.650Z,93.60
2022-09-12T04:51:10.559Z,93.70
2022-09-12T04:53:59.590Z,93.70
2022-09-12T04:56:48.769Z,93.70
2022-09-12T04:59:36.954Z,93.80
2022-09-12T05:02:24.202Z,93.80
2022-09-12T05:05:11.919Z,93.80
2022-09-12T05:07:59.159Z,93.80
2022-09-12T05:10:45.991Z,93.80
2022-09-12T05:13:34.319Z,93.90
2022-09-12T05:16:23.775Z,93.90
2022-09-12T05:19:12.950Z,93.90
2022-09-12T05:22:00.431Z,94.00
2022-09-12T05:24:53.984Z,94.10
2022-09-12T05:27:41.125Z,94.10
2022-09-12T05:30:28.074Z,94.20
2022-09-12T05:33:16.624Z,94.20
2022-09-12T05:36:04.737Z,94.30
2022-09-12T05:38:52.996Z,94.40
2022-09-12T05:41:40.063Z,94.40
2022-09-12T05:44:27.117Z,94.60
2022-09-12T05:47:14.140Z,94.60
2022-09-12T05:50:02.914Z,94.80
2022-09-12T05:52:50.825Z,94.70
2022-09-12T05:55:38.010Z,94.80
2022-09-12T05:58:25.051Z,94.90
2022-09-12T06:01:14.939Z,95.00
2022-09-12T06:04:05.362Z,95.00
2022-09-12T06:06:54.001Z,95.20
2022-09-12T06:09:40.998Z,95.40
2022-09-12T06:12:30.050Z,95.40
2022-09-12T06:15:18.739Z,95.50
2022-09-12T06:18:06.118Z,95.50
2022-09-12T06:20:53.209Z,95.50
2022-09-12T06:23:42.431Z,95.60
2022-09-12T06:26:31.011Z,95.60
2022-09-12T06:29:19.624Z,95.60
2022-09-12T06:32:07.098Z,95.60
2022-09-12T06:34:54.108Z,95.60
2022-09-12T06:37:42.197Z,95.60
2022-09-12T06:40:31.255Z,95.60
2022-09-12T06:43:20.307Z,95.60
2022-09-12T06:46:09.235Z,95.60
2022-09-12T06:48:59.453Z,95.60
2022-09-12T06:51:46.697Z,95.70
2022-09-12T06:54:33.854Z,95.60
2022-09-12T06:57:22.254Z,95.60
2022-09-12T07:00:11.154Z,95.50
2022-09-12T07:02:58.029Z,95.40
2022-09-12T07:05:45.171Z,95.30
2022-09-12T07:08:32.368Z,95.10
2022-09-12T07:11:21.477Z,95.00
2022-09-12T07:14:14.307Z,94.70
2022-09-12T07:17:01.224Z,94.70
2022-09-12T07:19:48.049Z,94.60
2022-09-12T07:22:34.986Z,94.40
2022-09-12T07:25:22.343Z,94.10
2022-09-12T07:28:09.601Z,94.00
2022-09-12T07:30:58.256Z,93.80
2022-09-12T07:33:45.679Z,93.60
2022-09-12T07:36:33.404Z,93.50
2022-09-12T07:39:21.434Z,93.20
2022-09-12T07:42:08.435Z,93.10
2022-09-12T07:44:55.613Z,92.50
2022-09-12T07:47:44.618Z,92.10
2022-09-12T07:50:32.969Z,91.80
2022-09-12T07:53:19.702Z,91.40
2022-09-12T07:56:07.839Z,91.30
2022-09-12T07:58:56.957Z,91.20
2022-09-12T08:01:44.661Z,90.50
2022-09-12T08:04:33.139Z,90.10
2022-09-12T08:07:20.375Z,90.00
2022-09-12T08:10:09.259Z,89.50
2022-09-12T08:12:56.711Z,88.80
2022-09-12T08:15:43.522Z,87.70
2022-09-12T08:18:32.953Z,86.60
2022-09-12T08:21:23.154Z,85.90
2022-09-12T08:24:13.742Z,84.80
2022-09-12T08:27:00.822Z,83.80
2022-09-12T08:29:47.868Z,83.10
2022-09-12T08:32:36.476Z,82.80
2022-09-12T08:35:23.646Z,81.30
2022-09-12T08:38:12.451Z,80.40
2022-09-12T08:41:05.538Z,79.30
2022-09-12T08:43:59.647Z,78.10
2022-09-12T08:46:49.439Z,79.00
2022-09-12T08:49:40.969Z,78.90
2022-09-12T08:52:38.437Z,76.70
2022-09-12T08:55:34.928Z,76.10
2022-09-12T08:58:24.790Z,74.50
2022-09-12T09:01:22.059Z,74.10
2022-09-12T09:04:26.913Z,73.30
2022-09-12T09:07:28.063Z,74.00
2022-09-12T09:10:25.528Z,71.40
2022-09-12T09:13:43.090Z,70.00
2022-09-12T09:16:32.991Z,69.50
2022-09-12T09:19:23.605Z,69.50
2022-09-12T09:22:15.375Z,69.20
2022-09-12T09:25:07.586Z,68.40
2022-09-12T09:27:59.864Z,68.80
2022-09-12T09:30:48.362Z,68.10
2022-09-12T09:33:36.558Z,66.20
2022-09-12T09:36:33.069Z,66.10
2022-09-12T09:39:31.608Z,66.50
2022-09-12T09:42:29.048Z,65.30
2022-09-12T09:45:19.971Z,64.00
2022-09-12T09:48:19.560Z,62.00
2022-09-12T09:51:10.024Z,62.30
2022-09-12T09:54:02.195Z,62.70
2022-09-12T09:56:50.133Z,63.60
2022-09-12T09:59:37.474Z,63.70
2022-09-12T10:02:25.014Z,61.80
2022-09-12T10:05:18.782Z,61.50
2022-09-12T10:08:08.237Z,60.30
2022-09-12T10:10:59.868Z,59.60
2022-09-12T10:13:57.139Z,59.20
2022-09-12T10:16:53.606Z,58.50
2022-09-12T10:19:41.283Z,58.60
2022-09-12T10:22:31.470Z,57.90
2022-09-12T10:25:20.700Z,58.20
2022-09-12T10:28:22.100Z,58.80
2022-09-12T10:31:12.009Z,57.70
2022-09-12T10:34:01.245Z,57.40
2022-09-12T10:36:48.915Z,57.80
2022-09-12T10:39:39.325Z,59.00
2022-09-12T10:42:44.082Z,58.90
2022-09-12T10:45:31.279Z,59.30
2022-09-12T10:48:32.017Z,58.20
2022-09-12T10:51:29.491Z,57.30
2022-09-12T10:54:19.289Z,56.80
2022-09-12T10:57:25.687Z,56.50
2022-09-12T11:00:17.682Z,57.80
2022-09-12T11:03:16.748Z,58.50
2022-09-12T11:06:03.833Z,57.00
2022-09-12T11:09:02.626Z,59.50
2022-09-12T11:12:03.486Z,58.50
2022-09-12T11:15:04.267Z,57.60
2022-09-12T11:17:58.002Z,57.00
2022-09-12T11:20:58.436Z,57.60
2022-09-12T11:24:09.134Z,56.90
2022-09-12T11:27:10.705Z,58.50
2022-09-12T11:30:02.807Z,56.90
2022-09-12T11:33:02.633Z,56.80
2022-09-12T11:35:55.284Z,57.30
2022-09-12T11:38:50.408Z,58.10
2022-09-12T11:41:42.313Z,56.80
2022-09-12T11:44:40.259Z,56.10
2022-09-12T11:47:32.342Z,55.70
2022-09-12T11:50:26.459Z,56.20
2022-09-12T11:53:20.265Z,56.10
2022-09-12T11:56:15.253Z,56.00
2022-09-12T11:59:12.005Z,57.40
2022-09-12T12:02:01.506Z,58.10
2022-09-12T12:05:03.999Z,58.20
2022-09-12T12:07:55.759Z,56.40
2022-09-12T12:10:46.082Z,54.90
2022-09-12T12:13:50.103Z,54.60
2022-09-12T12:16:41.150Z,54.80
2022-09-12T12:19:35.099Z,55.70
2022-09-12T12:22:25.442Z,56.20
2022-09-12T12:25:30.002Z,57.20
2022-09-12T12:28:52.386Z,55.20
2022-09-12T12:32:27.199Z,54.70
2022-09-12T12:35:46.435Z,55.30
2022-09-12T12:38:33.077Z,56.50
2022-09-12T12:41:49.906Z,54.40
2022-09-12T12:44:55.157Z,53.20
2022-09-12T12:47:47.438Z,52.90
2022-09-12T12:50:34.624Z,52.50
2022-09-12T12:53:27.903Z,53.40
2022-09-12T12:56:31.472Z,53.50
2022-09-12T12:59:23.013Z,54.10
2022-09-12T13:02:22.846Z,54.40
2022-09-12T13:05:22.113Z,53.90
2022-09-12T13:08:12.016Z,53.90
2022-09-12T13:11:03.198Z,52.80
2022-09-12T13:13:54.092Z,53.80
2022-09-12T13:20:30.229Z,52.30
2022-09-12T13:23:27.847Z,53.10
2022-09-12T13:26:23.062Z,52.40
2022-09-12T13:29:13.806Z,52.30
2022-09-12T13:32:09.121Z,51.70
2022-09-12T13:35:09.482Z,51.60
2022-09-12T13:38:05.682Z,53.00
2022-09-12T13:41:14.583Z,53.90
2022-09-12T13:44:03.813Z,52.60
2022-09-12T13:46:52.033Z,51.90
2022-09-12T13:49:41.599Z,51.50
2022-09-12T13:52:33.903Z,51.70
2022-09-12T13:55:31.490Z,52.40
2022-09-12T13:58:24.018Z,52.70
2022-09-12T14:01:16.186Z,51.90
2022-09-12T14:04:25.721Z,51.50
2022-09-12T14:07:17.210Z,51.40
2022-09-12T14:10:03.558Z,51.40
2022-09-12T14:12:52.969Z,52.50
2022-09-12T14:15:41.340Z,51.90
2022-09-12T14:18:32.625Z,52.70
2022-09-12T14:21:34.064Z,53.00
2022-09-12T14:24:24.633Z,52.80
2022-09-12T14:27:12.744Z,52.50
2022-09-12T14:30:09.150Z,51.80
2022-09-12T14:33:25.976Z,51.20
2022-09-12T14:36:18.738Z,51.60
2022-09-12T14:39:08.038Z,53.50
2022-09-12T14:42:06.841Z,53.10
2022-09-12T14:44:58.699Z,53.60
2022-09-12T14:47:51.524Z,53.80
2022-09-12T14:50:39.503Z,52.80
2022-09-12T14:53:33.272Z,52.20
2022-09-12T14:56:23.586Z,52.50
2022-09-12T14:59:28.856Z,54.20
2022-09-12T15:02:23.494Z,55.60
2022-09-12T15:05:23.360Z,53.90
2022-09-12T15:08:16.618Z,53.80
2022-09-12T15:11:03.266Z,55.00
2022-09-12T15:13:50.769Z,54.70
2022-09-12T15:16:37.729Z,54.40
2022-09-12T15:19:24.559Z,54.40
2022-09-12T15:22:14.503Z,54.30
2022-09-12T15:25:02.243Z,55.20
2022-09-12T15:27:52.371Z,54.80
2022-09-12T15:30:39.194Z,54.70
2022-09-12T15:33:26.961Z,54.10
2022-09-12T15:36:17.754Z,53.90
2022-09-12T15:39:06.444Z,54.20
2022-09-12T15:41:54.435Z,55.20
2022-09-12T15:44:41.978Z,54.90
2022-09-12T15:47:28.988Z,54.80
2022-09-12T15:50:16.157Z,54.90
2022-09-12T15:53:03.359Z,54.70
2022-09-12T15:55:51.628Z,54.80
2022-09-12T15:58:54.714Z,54.70
2022-09-12T16:01:45.392Z,54.70
2022-09-12T16:04:32.560Z,54.80
2022-09-12T16:07:19.414Z,55.10
2022-09-12T16:10:07.270Z,55.30
2022-09-12T16:12:55.724Z,55.00
2022-09-12T16:15:42.984Z,55.30
2022-09-12T16:18:30.272Z,55.50
2022-09-12T16:21:17.594Z,55.40
2022-09-12T16:24:04.906Z,55.80
2022-09-12T16:26:52.196Z,56.00
2022-09-12T16:29:40.783Z,56.20
2022-09-12T16:32:28.318Z,56.20
2022-09-12T16:35:15.590Z,56.40
2022-09-12T16:38:02.567Z,56.90
2022-09-12T16:40:49.413Z,57.30
2022-09-12T16:43:37.749Z,57.90
2022-09-12T16:46:28.772Z,58.00
2022-09-12T16:49:15.873Z,58.50
2022-09-12T16:52:03.190Z,58.90
2022-09-12T16:54:50.484Z,59.40
2022-09-12T16:57:37.908Z,59.80
2022-09-12T17:00:25.029Z,59.90
2022-09-12T17:03:13.914Z,61.30
2022-09-12T17:06:01.351Z,61.40
2022-09-12T17:08:50.233Z,61.90
2022-09-12T17:11:40.098Z,62.20
2022-09-12T17:14:27.269Z,63.10
2022-09-12T17:17:14.602Z,64.20
2022-09-12T17:20:03.290Z,65.00
2022-09-12T17:22:50.354Z,63.10
2022-09-12T17:25:37.271Z,62.90
2022-09-12T17:28:24.476Z,63.40
2022-09-12T17:31:13.611Z,64.10
2022-09-12T17:34:01.556Z,64.90
2022-09-12T17:36:49.874Z,66.10
2022-09-12T17:39:36.844Z,66.90
2022-09-12T17:42:24.589Z,68.40
2022-09-12T17:45:16.386Z,66.60
2022-09-12T17:48:06.359Z,67.80
2022-09-12T17:50:53.522Z,68.60
2022-09-12T17:53:42.641Z,68.80
2022-09-12T17:56:31.593Z,69.50
2022-09-12T17:59:21.547Z,69.80
2022-09-12T18:02:13.247Z,70.00
2022-09-12T18:05:00.523Z,70.30
2022-09-12T18:07:47.795Z,70.70
2022-09-12T18:10:35.957Z,70.90
2022-09-12T18:13:23.125Z,71.30
2022-09-12T18:16:11.827Z,71.90
2022-09-12T18:19:01.746Z,72.00
2022-09-12T18:21:48.648Z,72.40
2022-09-12T18:24:35.727Z,72.90
2022-09-12T18:27:23.920Z,73.40
2022-09-12T18:30:21.770Z,73.80
2022-09-12T18:33:09.450Z,74.30
2022-09-12T18:35:56.820Z,74.50
2022-09-12T18:38:45.011Z,74.60
2022-09-12T18:41:32.382Z,74.90
2022-09-12T18:44:21.217Z,75.30
2022-09-12T18:47:09.763Z,75.70
2022-09-12T18:49:57.112Z,76.10
2022-09-12T18:52:44.153Z,76.40
2022-09-12T18:55:33.422Z,76.50
2022-09-12T18:58:20.424Z,76.90
2022-09-12T19:01:13.915Z,77.10
2022-09-12T19:04:04.760Z,77.30
2022-09-12T19:06:51.890Z,77.60
2022-09-12T19:09:39.097Z,78.70
2022-09-12T19:12:26.159Z,78.10
2022-09-12T19:15:13.080Z,78.40
2022-09-12T19:18:01.829Z,78.80
2022-09-12T19:20:52.650Z,79.20
2022-09-12T19:23:39.530Z,79.40
2022-09-12T19:26:27.451Z,79.60
2022-09-12T19:29:16.621Z,79.90
2022-09-12T19:32:04.096Z,80.20
2022-09-12T19:34:52.465Z,80.60
2022-09-12T19:37:39.658Z,80.80
2022-09-12T19:40:28.111Z,81.20
2022-09-12T19:43:15.169Z,81.30
2022-09-12T19:46:03.561Z,81.60
2022-09-12T19:48:52.359Z,81.70
2022-09-12T19:51:40.901Z,82.00
2022-09-12T19:54:27.702Z,82.20
2022-09-12T19:57:15.061Z,82.40
2022-09-12T20:00:02.179Z,82.80
2022-09-12T20:02:54.274Z,82.80
2022-09-12T20:08:31.606Z,82.60
2022-09-12T20:11:20.541Z,83.50
2022-09-12T20:14:07.959Z,83.60
2022-09-12T20:16:55.267Z,83.80
2022-09-12T20:19:42.496Z,84.10
2022-09-12T20:22:29.555Z,84.20
2022-09-12T20:25:20.289Z,84.40
2022-09-12T20:28:07.540Z,84.60
2022-09-12T20:30:54.915Z,84.70
2022-09-12T20:33:42.585Z,84.90
2022-09-12T20:36:29.803Z,85.20
2022-09-12T20:39:18.982Z,86.20
2022-09-12T20:42:07.647Z,85.50
2022-09-12T20:44:54.559Z,85.70
2022-09-12T20:47:41.514Z,85.80
2022-09-12T20:50:28.342Z,86.10
2022-09-12T20:53:15.926Z,86.20
2022-09-12T20:56:03.413Z,86.40
2022-09-12T20:58:52.525Z,86.50
2022-09-12T21:01:40.102Z,86.70
2022-09-12T21:04:28.129Z,86.90
2022-09-12T21:07:14.945Z,88.00
2022-09-12T21:10:01.818Z,87.30
2022-09-12T21:12:49.050Z,87.50
2022-09-12T21:15:38.920Z,87.70
2022-09-12T21:18:26.111Z,87.80
2022-09-12T21:21:15.370Z,87.90
2022-09-12T21:24:03.891Z,88.00
2022-09-12T21:26:51.085Z,88.00
2022-09-12T21:29:38.525Z,88.00
2022-09-12T21:32:26.915Z,88.10
2022-09-12T21:35:14.393Z,88.30
2022-09-12T21:38:01.602Z,88.30
2022-09-12T21:40:48.943Z,88.40
2022-09-12T21:43:36.790Z,88.50
2022-09-12T21:46:23.878Z,88.70
2022-09-12T21:49:12.088Z,88.80
2022-09-12T21:51:58.906Z,89.00
2022-09-12T21:54:45.775Z,89.00
2022-09-12T21:57:32.878Z,89.00
2022-09-12T22:00:19.938Z,89.10
2022-09-12T22:03:06.820Z,89.20
2022-09-12T22:05:58.460Z,89.40
2022-09-12T22:08:45.587Z,89.50
2022-09-12T22:11:32.499Z,89.60
2022-09-12T22:14:19.793Z,89.70
2022-09-12T22:17:08.302Z,89.90
2022-09-12T22:19:55.095Z,90.00
2022-09-12T22:22:57.600Z,90.00
2022-09-12T22:25:43.807Z,90.10
2022-09-12T22:28:29.425Z,90.10
2022-09-12T22:31:16.174Z,90.00
2022-09-12T22:34:03.516Z,90.10
2022-09-12T22:36:50.800Z,90.20
2022-09-12T22:39:39.484Z,90.20
2022-09-12T22:42:26.649Z,90.40
2022-09-12T22:45:13.905Z,90.50
2022-09-12T22:48:01.353Z,90.70
2022-09-12T22:50:49.426Z,90.70
2022-09-12T22:53:37.783Z,90.60
2022-09-12T22:56:26.289Z,90.70
2022-09-12T22:59:13.630Z,90.70
2022-09-12T23:02:00.472Z,90.70
2022-09-12T23:04:48.554Z,90.80
2022-09-12T23:07:35.801Z,90.80
2022-09-12T23:10:23.173Z,90.90
2022-09-12T23:13:11.824Z,90.90
2022-09-12T23:16:00.462Z,91.00
2022-09-12T23:18:47.752Z,91.00
2022-09-12T23:21:34.947Z,91.00
2022-09-12T23:24:22.137Z,91.00
2022-09-12T23:27:09.559Z,90.90
2022-09-12T23:29:57.767Z,90.90
2022-09-12T23:32:44.837Z,90.90
2022-09-12T23:35:31.766Z,90.80
2022-09-12T23:38:18.598Z,90.80
2022-09-12T23:41:05.880Z,90.80
2022-09-12T23:43:53.300Z,90.80
2022-09-12T23:46:41.610Z,90.80
2022-09-12T23:49:28.750Z,90.80
2022-09-12T23:52:15.580Z,90.90
2022-09-12T23:55:02.562Z,90.60
2022-09-12T23:57:49.424Z,90.90
